Etusivu
METAR-TAF:

METAR-TAF

Lentoasemat :

Augsburg, Saksa

Leveyspiiri: 48-26N, Pituuspiiri: 010-56E, korkeus merenpinnasta: 461 m

Tämänhetkinen sää

Tämä raportti tehtiin 41 minuuttia sitten, kello 18.20 UTC
Tuuli 5 kn idästä/koillisesta
Lämpötila 6°C
Kosteus 81%
Ilmanpaine 999 hPa
Näkyvyys 10 km tai enemmän
ei pilviä alle 1500 m:ssä eikä cumulonimbus-pilviä

METAR: EDMA 031820Z 07005KT CAVOK 06/03 Q0999

Aika: 20:01 (19:01 UTC)

Sääennuste

Tämä raportti tehtiin 2 tuntia ja 1 minuuttia sitten, kello 17.00 UTC
Ennuste voimassa 03. päivästä klo 18 UTC - 03. päivään klo 24 UTC
Tuuli 4 kn idästä
Näkyvyys 10 km tai enemmän
ei pilviä alle 1500 m:ssä eikä cumulonimbus-pilviä

TAF: EDMA 031700Z 0318/0324 10004KT CAVOK

Säähavainnot ja -ennusteet yli 4000 lentoasemalta (METAR- ja TAF-raportit).

Käytössä olevat sääasemat on merkitty karttaan keltaisilla ja punaisilla pisteillä.

Aseta hiiri pisteen päälle nähdäksesi sääaseman nimen.

Klikkaa sitten nähdäksesi säähavainnot ja -ennusteet.

Kartan vaihtaminen: klikkaa mustalla rastilla varustettuja vihreitä pisteitä, niin voit zoomata sisään; viivalla varustettua vihreää pistettä, niin voit zoomata ulos tai vihreitä nuolia, niin pääset viereisille kartoille.


METAR-TAF: